sensor_id;sensor_type;location;lat;lon;timestamp;pressure;altitude;pressure_sealevel;temperature;humidity
10948;BME280;5526;42.070;24.752;2023-02-23T00:01:22;98883.44;;;8.68;78.16
10948;BME280;5526;42.070;24.752;2023-02-23T00:03:52;98889.16;;;8.65;78.61
10948;BME280;5526;42.070;24.752;2023-02-23T00:06:22;98883.44;;;8.68;78.41
10948;BME280;5526;42.070;24.752;2023-02-23T00:08:50;98882.94;;;8.71;78.92
10948;BME280;5526;42.070;24.752;2023-02-23T00:11:18;98886.34;;;8.72;79.00
10948;BME280;5526;42.070;24.752;2023-02-23T00:13:47;98874.16;;;8.61;79.80
10948;BME280;5526;42.070;24.752;2023-02-23T00:16:17;98886.59;;;8.70;79.55
10948;BME280;5526;42.070;24.752;2023-02-23T00:18:46;98882.16;;;8.71;80.05
10948;BME280;5526;42.070;24.752;2023-02-23T00:21:16;98880.94;;;8.78;79.58
10948;BME280;5526;42.070;24.752;2023-02-23T00:23:50;98885.50;;;8.88;78.41
10948;BME280;5526;42.070;24.752;2023-02-23T00:26:17;98887.78;;;8.79;78.94
10948;BME280;5526;42.070;24.752;2023-02-23T00:28:46;98889.13;;;8.82;78.91
10948;BME280;5526;42.070;24.752;2023-02-23T00:31:14;98880.34;;;8.71;78.85
10948;BME280;5526;42.070;24.752;2023-02-23T00:33:41;98874.72;;;8.84;78.06
10948;BME280;5526;42.070;24.752;2023-02-23T00:36:10;98876.41;;;8.96;77.22
10948;BME280;5526;42.070;24.752;2023-02-23T00:38:38;98884.53;;;8.94;76.30
10948;BME280;5526;42.070;24.752;2023-02-23T00:41:08;98890.88;;;8.98;76.17
10948;BME280;5526;42.070;24.752;2023-02-23T00:43:37;98881.47;;;9.02;76.07
10948;BME280;5526;42.070;24.752;2023-02-23T00:46:12;98887.00;;;9.06;75.93
10948;BME280;5526;42.070;24.752;2023-02-23T00:48:41;98867.44;;;8.92;75.37
10948;BME280;5526;42.070;24.752;2023-02-23T00:51:08;98888.97;;;8.93;74.68
10948;BME280;5526;42.070;24.752;2023-02-23T00:53:35;98883.81;;;8.99;73.93
10948;BME280;5526;42.070;24.752;2023-02-23T00:56:03;98876.47;;;9.01;73.28
10948;BME280;5526;42.070;24.752;2023-02-23T00:58:31;98884.09;;;9.02;72.66
10948;BME280;5526;42.070;24.752;2023-02-23T01:00:58;98879.53;;;8.93;73.30
10948;BME280;5526;42.070;24.752;2023-02-23T01:03:26;98885.13;;;9.01;73.56
10948;BME280;5526;42.070;24.752;2023-02-23T01:05:53;98886.22;;;9.05;72.31
10948;BME280;5526;42.070;24.752;2023-02-23T01:08:20;98894.84;;;9.01;71.80
10948;BME280;5526;42.070;24.752;2023-02-23T01:10:47;98892.66;;;8.93;71.66
10948;BME280;5526;42.070;24.752;2023-02-23T01:13:18;98887.09;;;8.89;71.38
10948;BME280;5526;42.070;24.752;2023-02-23T01:15:47;98896.56;;;8.90;71.26
10948;BME280;5526;42.070;24.752;2023-02-23T01:18:15;98884.66;;;8.82;71.25
10948;BME280;5526;42.070;24.752;2023-02-23T01:20:43;98877.56;;;8.83;70.81
10948;BME280;5526;42.070;24.752;2023-02-23T01:23:11;98878.00;;;8.75;70.57
10948;BME280;5526;42.070;24.752;2023-02-23T01:25:40;98896.19;;;8.81;71.23
10948;BME280;5526;42.070;24.752;2023-02-23T01:28:08;98894.84;;;8.79;71.52
10948;BME280;5526;42.070;24.752;2023-02-23T01:30:36;98896.06;;;8.71;70.84
10948;BME280;5526;42.070;24.752;2023-02-23T01:33:06;98898.06;;;8.64;71.97
10948;BME280;5526;42.070;24.752;2023-02-23T01:35:34;98895.16;;;8.61;72.87
10948;BME280;5526;42.070;24.752;2023-02-23T01:38:01;98893.06;;;8.63;73.18
10948;BME280;5526;42.070;24.752;2023-02-23T01:40:30;98896.16;;;8.60;73.95
10948;BME280;5526;42.070;24.752;2023-02-23T01:42:58;98901.13;;;8.56;74.97
10948;BME280;5526;42.070;24.752;2023-02-23T01:45:30;98892.25;;;8.62;75.13
10948;BME280;5526;42.070;24.752;2023-02-23T01:48:03;98897.03;;;8.65;74.85
10948;BME280;5526;42.070;24.752;2023-02-23T01:50:38;98889.72;;;8.67;75.18
10948;BME280;5526;42.070;24.752;2023-02-23T01:53:08;98890.63;;;8.56;75.96
10948;BME280;5526;42.070;24.752;2023-02-23T01:55:36;98901.66;;;8.58;76.79
10948;BME280;5526;42.070;24.752;2023-02-23T01:58:07;98894.81;;;8.57;76.74
10948;BME280;5526;42.070;24.752;2023-02-23T02:00:41;98897.22;;;8.59;75.80
10948;BME280;5526;42.070;24.752;2023-02-23T02:03:14;98895.94;;;8.61;75.63
10948;BME280;5526;42.070;24.752;2023-02-23T02:05:45;98902.69;;;8.57;75.68
10948;BME280;5526;42.070;24.752;2023-02-23T02:08:14;98906.31;;;8.51;75.18
10948;BME280;5526;42.070;24.752;2023-02-23T02:10:43;98900.44;;;8.44;75.14
10948;BME280;5526;42.070;24.752;2023-02-23T02:13:15;98903.81;;;8.45;75.31
10948;BME280;5526;42.070;24.752;2023-02-23T02:22:26;98905.75;;;8.16;79.39
10948;BME280;5526;42.070;24.752;2023-02-23T02:31:24;98912.19;;;8.09;81.79
10948;BME280;5526;42.070;24.752;2023-02-23T02:34:28;98892.91;;;7.98;80.79
10948;BME280;5526;42.070;24.752;2023-02-23T02:37:27;98907.19;;;8.07;82.28
10948;BME280;5526;42.070;24.752;2023-02-23T02:40:03;98906.16;;;8.08;81.90
10948;BME280;5526;42.070;24.752;2023-02-23T02:42:52;98907.03;;;7.97;83.22
10948;BME280;5526;42.070;24.752;2023-02-23T02:45:26;98893.72;;;7.99;83.02
10948;BME280;5526;42.070;24.752;2023-02-23T02:47:58;98909.91;;;8.12;83.44
10948;BME280;5526;42.070;24.752;2023-02-23T02:50:33;98906.41;;;8.07;83.30
10948;BME280;5526;42.070;24.752;2023-02-23T02:53:07;98910.69;;;8.13;83.01
10948;BME280;5526;42.070;24.752;2023-02-23T02:55:37;98916.16;;;8.11;83.07
10948;BME280;5526;42.070;24.752;2023-02-23T02:58:10;98920.16;;;8.14;82.88
10948;BME280;5526;42.070;24.752;2023-02-23T03:00:40;98891.31;;;7.97;83.97
10948;BME280;5526;42.070;24.752;2023-02-23T03:03:29;98915.63;;;8.09;84.45
10948;BME280;5526;42.070;24.752;2023-02-23T03:06:15;98913.00;;;8.09;84.04
10948;BME280;5526;42.070;24.752;2023-02-23T03:09:07;98926.75;;;8.16;84.06
10948;BME280;5526;42.070;24.752;2023-02-23T03:12:00;98917.75;;;8.12;83.61
10948;BME280;5526;42.070;24.752;2023-02-23T03:14:57;98928.16;;;8.07;84.23
10948;BME280;5526;42.070;24.752;2023-02-23T03:17:46;98918.16;;;8.04;83.72
10948;BME280;5526;42.070;24.752;2023-02-23T03:20:41;98924.41;;;8.03;83.81
10948;BME280;5526;42.070;24.752;2023-02-23T03:23:33;98931.28;;;8.04;83.29
10948;BME280;5526;42.070;24.752;2023-02-23T03:26:27;98929.66;;;8.03;82.46
10948;BME280;5526;42.070;24.752;2023-02-23T03:29:19;98931.75;;;8.01;81.44
10948;BME280;5526;42.070;24.752;2023-02-23T03:32:12;98928.06;;;8.02;81.38
10948;BME280;5526;42.070;24.752;2023-02-23T03:35:05;98928.72;;;7.93;80.75
10948;BME280;5526;42.070;24.752;2023-02-23T03:37:53;98933.41;;;7.91;80.41
10948;BME280;5526;42.070;24.752;2023-02-23T03:40:41;98922.69;;;7.92;79.61
10948;BME280;5526;42.070;24.752;2023-02-23T03:43:33;98931.56;;;7.91;78.62
10948;BME280;5526;42.070;24.752;2023-02-23T03:46:19;98940.47;;;7.90;77.80
10948;BME280;5526;42.070;24.752;2023-02-23T03:49:06;98929.97;;;7.90;77.19
10948;BME280;5526;42.070;24.752;2023-02-23T03:51:57;98930.78;;;7.91;76.71
10948;BME280;5526;42.070;24.752;2023-02-23T03:54:46;98938.66;;;7.91;76.44
10948;BME280;5526;42.070;24.752;2023-02-23T03:57:36;98929.91;;;7.85;76.65
10948;BME280;5526;42.070;24.752;2023-02-23T04:00:26;98931.31;;;7.76;76.47
10948;BME280;5526;42.070;24.752;2023-02-23T04:03:14;98936.16;;;7.68;77.62
10948;BME280;5526;42.070;24.752;2023-02-23T04:06:00;98933.78;;;7.66;77.86
10948;BME280;5526;42.070;24.752;2023-02-23T04:08:46;98936.63;;;7.65;78.09
10948;BME280;5526;42.070;24.752;2023-02-23T04:11:39;98924.75;;;7.46;79.82
10948;BME280;5526;42.070;24.752;2023-02-23T04:14:30;98928.19;;;7.46;81.01
10948;BME280;5526;42.070;24.752;2023-02-23T04:17:01;98930.66;;;7.53;80.72
10948;BME280;5526;42.070;24.752;2023-02-23T04:19:28;98927.56;;;7.56;81.06
10948;BME280;5526;42.070;24.752;2023-02-23T04:21:55;98929.16;;;7.57;81.50
10948;BME280;5526;42.070;24.752;2023-02-23T04:24:22;98935.50;;;7.61;81.84
10948;BME280;5526;42.070;24.752;2023-02-23T04:26:49;98933.69;;;7.61;82.24
10948;BME280;5526;42.070;24.752;2023-02-23T04:29:16;98934.81;;;7.65;81.73
10948;BME280;5526;42.070;24.752;2023-02-23T04:31:43;98934.00;;;7.65;82.61
10948;BME280;5526;42.070;24.752;2023-02-23T04:34:13;98942.66;;;7.65;82.34
10948;BME280;5526;42.070;24.752;2023-02-23T04:36:40;98948.81;;;7.59;83.02
10948;BME280;5526;42.070;24.752;2023-02-23T04:39:07;98945.91;;;7.56;83.87
10948;BME280;5526;42.070;24.752;2023-02-23T04:41:34;98947.56;;;7.62;83.09
10948;BME280;5526;42.070;24.752;2023-02-23T04:44:01;98943.81;;;7.58;83.03
10948;BME280;5526;42.070;24.752;2023-02-23T04:46:29;98943.50;;;7.54;83.21
10948;BME280;5526;42.070;24.752;2023-02-23T04:48:56;98942.94;;;7.52;83.25
10948;BME280;5526;42.070;24.752;2023-02-23T04:51:25;98948.97;;;7.53;84.36
10948;BME280;5526;42.070;24.752;2023-02-23T04:53:56;98947.41;;;7.52;83.94
10948;BME280;5526;42.070;24.752;2023-02-23T04:56:23;98947.84;;;7.49;83.54
10948;BME280;5526;42.070;24.752;2023-02-23T04:58:50;98949.66;;;7.48;83.81
10948;BME280;5526;42.070;24.752;2023-02-23T05:01:17;98949.78;;;7.53;83.49
10948;BME280;5526;42.070;24.752;2023-02-23T05:03:46;98949.22;;;7.51;83.26
10948;BME280;5526;42.070;24.752;2023-02-23T05:06:13;98950.19;;;7.62;83.29
10948;BME280;5526;42.070;24.752;2023-02-23T05:08:42;98959.25;;;7.71;82.46
10948;BME280;5526;42.070;24.752;2023-02-23T05:11:10;98962.00;;;7.64;82.69
10948;BME280;5526;42.070;24.752;2023-02-23T05:13:37;98960.41;;;7.63;83.01
10948;BME280;5526;42.070;24.752;2023-02-23T05:16:06;98958.59;;;7.64;82.22
10948;BME280;5526;42.070;24.752;2023-02-23T05:18:33;98961.47;;;7.62;82.49
10948;BME280;5526;42.070;24.752;2023-02-23T05:21:01;98969.31;;;7.62;83.00
10948;BME280;5526;42.070;24.752;2023-02-23T05:23:28;98965.88;;;7.62;82.22
10948;BME280;5526;42.070;24.752;2023-02-23T05:26:00;98975.66;;;7.66;82.73
10948;BME280;5526;42.070;24.752;2023-02-23T05:28:29;98984.06;;;7.68;82.60
10948;BME280;5526;42.070;24.752;2023-02-23T05:30:56;98976.44;;;7.67;82.54
10948;BME280;5526;42.070;24.752;2023-02-23T05:33:23;98987.44;;;7.80;82.50
10948;BME280;5526;42.070;24.752;2023-02-23T05:35:50;98989.19;;;7.91;81.55
10948;BME280;5526;42.070;24.752;2023-02-23T05:38:17;98995.56;;;7.95;81.53
10948;BME280;5526;42.070;24.752;2023-02-23T05:40:46;98998.19;;;7.95;81.67
10948;BME280;5526;42.070;24.752;2023-02-23T05:43:14;99008.00;;;7.88;81.59
10948;BME280;5526;42.070;24.752;2023-02-23T05:45:42;99010.16;;;7.91;82.02
10948;BME280;5526;42.070;24.752;2023-02-23T05:48:10;99016.53;;;7.95;81.99
10948;BME280;5526;42.070;24.752;2023-02-23T05:50:37;99024.81;;;8.04;81.40
10948;BME280;5526;42.070;24.752;2023-02-23T05:53:04;99019.25;;;8.00;81.20
10948;BME280;5526;42.070;24.752;2023-02-23T05:55:31;99019.09;;;8.07;81.10
10948;BME280;5526;42.070;24.752;2023-02-23T05:57:58;99025.00;;;8.14;80.97
10948;BME280;5526;42.070;24.752;2023-02-23T06:00:27;99034.63;;;8.25;80.73
10948;BME280;5526;42.070;24.752;2023-02-23T06:02:54;99039.16;;;8.29;80.76
10948;BME280;5526;42.070;24.752;2023-02-23T06:05:21;99046.53;;;8.49;79.70
10948;BME280;5526;42.070;24.752;2023-02-23T06:07:48;99039.34;;;8.39;79.72
10948;BME280;5526;42.070;24.752;2023-02-23T06:10:15;99045.84;;;8.09;81.17
10948;BME280;5526;42.070;24.752;2023-02-23T06:12:42;99042.72;;;7.95;82.06
10948;BME280;5526;42.070;24.752;2023-02-23T06:15:10;99036.09;;;8.04;81.82
10948;BME280;5526;42.070;24.752;2023-02-23T06:17:38;99042.38;;;8.20;81.53
10948;BME280;5526;42.070;24.752;2023-02-23T06:20:06;99053.47;;;8.38;80.59
10948;BME280;5526;42.070;24.752;2023-02-23T06:22:33;99050.28;;;8.53;80.52
10948;BME280;5526;42.070;24.752;2023-02-23T06:25:00;99052.59;;;8.66;80.07
10948;BME280;5526;42.070;24.752;2023-02-23T06:27:29;99045.97;;;8.80;80.16
10948;BME280;5526;42.070;24.752;2023-02-23T06:29:56;99049.63;;;8.96;79.14
10948;BME280;5526;42.070;24.752;2023-02-23T06:32:23;99047.63;;;9.03;79.27
10948;BME280;5526;42.070;24.752;2023-02-23T06:34:52;99051.72;;;9.15;78.60
10948;BME280;5526;42.070;24.752;2023-02-23T06:37:19;99053.47;;;9.10;78.95
10948;BME280;5526;42.070;24.752;2023-02-23T06:39:46;99048.19;;;9.26;79.15
10948;BME280;5526;42.070;24.752;2023-02-23T06:42:15;99049.31;;;9.30;78.83
10948;BME280;5526;42.070;24.752;2023-02-23T06:44:41;99057.00;;;9.37;78.28
10948;BME280;5526;42.070;24.752;2023-02-23T06:47:09;99058.09;;;9.41;78.33
10948;BME280;5526;42.070;24.752;2023-02-23T06:49:36;99059.88;;;9.57;78.54
10948;BME280;5526;42.070;24.752;2023-02-23T06:52:06;99058.03;;;9.57;79.14
10948;BME280;5526;42.070;24.752;2023-02-23T06:54:34;99063.28;;;9.57;79.19
10948;BME280;5526;42.070;24.752;2023-02-23T06:57:02;99069.97;;;9.65;79.51
10948;BME280;5526;42.070;24.752;2023-02-23T06:59:29;99066.16;;;9.56;79.77
10948;BME280;5526;42.070;24.752;2023-02-23T07:01:56;99070.47;;;9.62;80.79
10948;BME280;5526;42.070;24.752;2023-02-23T07:04:23;99065.91;;;9.79;80.38
10948;BME280;5526;42.070;24.752;2023-02-23T07:06:50;99070.72;;;9.87;79.01
10948;BME280;5526;42.070;24.752;2023-02-23T07:09:19;99070.72;;;9.87;79.89
10948;BME280;5526;42.070;24.752;2023-02-23T07:11:46;99072.38;;;9.93;79.04
10948;BME280;5526;42.070;24.752;2023-02-23T07:14:13;99068.59;;;10.05;78.80
10948;BME280;5526;42.070;24.752;2023-02-23T07:16:40;99071.81;;;10.12;78.21
10948;BME280;5526;42.070;24.752;2023-02-23T07:19:07;99066.66;;;10.22;78.14
10948;BME280;5526;42.070;24.752;2023-02-23T07:21:34;99074.09;;;10.30;77.36
10948;BME280;5526;42.070;24.752;2023-02-23T07:24:01;99066.53;;;10.39;76.77
10948;BME280;5526;42.070;24.752;2023-02-23T07:26:31;99067.91;;;10.41;75.63
10948;BME280;5526;42.070;24.752;2023-02-23T07:28:58;99060.72;;;10.32;77.06
10948;BME280;5526;42.070;24.752;2023-02-23T07:31:26;99062.19;;;10.23;77.00
10948;BME280;5526;42.070;24.752;2023-02-23T07:33:53;99065.50;;;10.13;78.38
10948;BME280;5526;42.070;24.752;2023-02-23T07:36:20;99064.44;;;10.36;77.41
10948;BME280;5526;42.070;24.752;2023-02-23T07:38:47;99066.66;;;10.54;76.91
10948;BME280;5526;42.070;24.752;2023-02-23T07:41:14;99063.28;;;10.58;76.38
10948;BME280;5526;42.070;24.752;2023-02-23T07:43:43;99044.50;;;10.45;76.06
10948;BME280;5526;42.070;24.752;2023-02-23T07:46:10;99065.78;;;10.75;75.67
10948;BME280;5526;42.070;24.752;2023-02-23T07:48:38;99063.09;;;10.70;76.25
10948;BME280;5526;42.070;24.752;2023-02-23T07:51:10;99050.72;;;10.34;77.60
10948;BME280;5526;42.070;24.752;2023-02-23T07:53:37;99063.31;;;10.63;76.21
10948;BME280;5526;42.070;24.752;2023-02-23T07:56:05;99066.88;;;10.79;75.40
10948;BME280;5526;42.070;24.752;2023-02-23T07:58:34;99065.16;;;10.99;75.01
10948;BME280;5526;42.070;24.752;2023-02-23T08:01:03;99062.16;;;10.86;74.14
10948;BME280;5526;42.070;24.752;2023-02-23T08:03:31;99066.78;;;11.05;74.16
10948;BME280;5526;42.070;24.752;2023-02-23T08:05:58;99060.94;;;10.98;73.78
10948;BME280;5526;42.070;24.752;2023-02-23T08:08:26;99059.72;;;11.11;73.42
10948;BME280;5526;42.070;24.752;2023-02-23T08:10:59;99055.63;;;11.35;72.40
10948;BME280;5526;42.070;24.752;2023-02-23T08:13:26;99066.25;;;11.60;71.98
10948;BME280;5526;42.070;24.752;2023-02-23T08:15:53;99054.47;;;11.77;71.52
10948;BME280;5526;42.070;24.752;2023-02-23T08:18:22;99052.94;;;11.86;70.97
10948;BME280;5526;42.070;24.752;2023-02-23T08:20:49;99053.47;;;11.93;69.84
10948;BME280;5526;42.070;24.752;2023-02-23T08:23:16;99060.09;;;12.01;69.61
10948;BME280;5526;42.070;24.752;2023-02-23T08:25:43;99060.94;;;12.26;68.86
10948;BME280;5526;42.070;24.752;2023-02-23T08:28:11;99060.94;;;12.31;68.51
10948;BME280;5526;42.070;24.752;2023-02-23T08:30:39;99055.94;;;12.45;67.98
10948;BME280;5526;42.070;24.752;2023-02-23T08:33:07;99058.56;;;12.40;68.06
10948;BME280;5526;42.070;24.752;2023-02-23T08:35:35;99056.69;;;12.10;69.43
10948;BME280;5526;42.070;24.752;2023-02-23T08:38:02;99059.59;;;12.34;68.80
10948;BME280;5526;42.070;24.752;2023-02-23T08:40:29;99054.88;;;12.51;68.76
10948;BME280;5526;42.070;24.752;2023-02-23T08:42:56;99062.28;;;12.64;68.14
10948;BME280;5526;42.070;24.752;2023-02-23T08:45:23;99056.94;;;12.89;67.40
10948;BME280;5526;42.070;24.752;2023-02-23T08:47:53;99062.53;;;12.98;66.20
10948;BME280;5526;42.070;24.752;2023-02-23T08:50:20;99058.28;;;12.71;67.02
10948;BME280;5526;42.070;24.752;2023-02-23T08:52:49;99066.75;;;12.78;66.98
10948;BME280;5526;42.070;24.752;2023-02-23T08:55:16;99065.41;;;13.01;67.01
10948;BME280;5526;42.070;24.752;2023-02-23T08:57:45;99069.09;;;13.15;66.03
10948;BME280;5526;42.070;24.752;2023-02-23T09:00:13;99062.97;;;13.30;63.95
10948;BME280;5526;42.070;24.752;2023-02-23T09:02:41;99068.53;;;13.33;64.47
10948;BME280;5526;42.070;24.752;2023-02-23T09:05:09;99068.78;;;13.37;64.90
10948;BME280;5526;42.070;24.752;2023-02-23T09:07:37;99073.50;;;13.55;64.52
10948;BME280;5526;42.070;24.752;2023-02-23T09:10:07;99064.25;;;13.52;64.51
10948;BME280;5526;42.070;24.752;2023-02-23T09:12:36;99067.50;;;13.29;65.18
10948;BME280;5526;42.070;24.752;2023-02-23T09:15:04;99069.34;;;13.24;65.55
10948;BME280;5526;42.070;24.752;2023-02-23T09:17:31;99065.56;;;13.55;65.02
10948;BME280;5526;42.070;24.752;2023-02-23T09:19:59;99060.97;;;13.70;64.99
10948;BME280;5526;42.070;24.752;2023-02-23T09:22:26;99063.78;;;13.89;64.37
10948;BME280;5526;42.070;24.752;2023-02-23T09:24:53;99064.75;;;14.08;63.86
10948;BME280;5526;42.070;24.752;2023-02-23T09:27:22;99063.91;;;14.17;62.83
10948;BME280;5526;42.070;24.752;2023-02-23T09:29:49;99058.25;;;14.34;62.79
10948;BME280;5526;42.070;24.752;2023-02-23T09:32:16;99057.63;;;14.47;62.16
10948;BME280;5526;42.070;24.752;2023-02-23T09:34:43;99058.00;;;14.69;61.40
10948;BME280;5526;42.070;24.752;2023-02-23T09:37:10;99054.25;;;14.70;61.12
10948;BME280;5526;42.070;24.752;2023-02-23T09:39:37;99058.16;;;14.44;62.24
10948;BME280;5526;42.070;24.752;2023-02-23T09:42:12;99042.38;;;14.34;61.43
10948;BME280;5526;42.070;24.752;2023-02-23T09:44:51;99052.81;;;14.54;61.65
10948;BME280;5526;42.070;24.752;2023-02-23T09:47:29;99040.66;;;14.53;61.76
10948;BME280;5526;42.070;24.752;2023-02-23T09:49:58;99045.34;;;14.61;61.34
10948;BME280;5526;42.070;24.752;2023-02-23T09:52:37;99044.50;;;14.32;62.04
10948;BME280;5526;42.070;24.752;2023-02-23T09:55:08;99030.91;;;14.43;61.52
10948;BME280;5526;42.070;24.752;2023-02-23T09:57:38;99042.88;;;14.69;61.26
10948;BME280;5526;42.070;24.752;2023-02-23T10:00:18;99041.69;;;14.52;61.58
10948;BME280;5526;42.070;24.752;2023-02-23T10:03:16;99038.38;;;14.98;59.87
10948;BME280;5526;42.070;24.752;2023-02-23T10:05:47;99041.44;;;14.82;60.07
10948;BME280;5526;42.070;24.752;2023-02-23T10:08:24;99030.22;;;14.33;61.42
10948;BME280;5526;42.070;24.752;2023-02-23T10:11:04;99037.84;;;15.48;57.19
10948;BME280;5526;42.070;24.752;2023-02-23T10:13:43;99037.22;;;15.04;58.84
10948;BME280;5526;42.070;24.752;2023-02-23T10:16:20;99024.34;;;15.21;58.02
10948;BME280;5526;42.070;24.752;2023-02-23T10:18:54;99017.09;;;15.03;58.74
10948;BME280;5526;42.070;24.752;2023-02-23T10:21:29;99021.97;;;16.22;55.08
10948;BME280;5526;42.070;24.752;2023-02-23T10:24:04;99017.03;;;15.55;57.44
10948;BME280;5526;42.070;24.752;2023-02-23T10:26:38;99013.09;;;15.29;57.05
10948;BME280;5526;42.070;24.752;2023-02-23T10:29:20;99008.59;;;15.06;57.73
10948;BME280;5526;42.070;24.752;2023-02-23T10:31:52;99002.50;;;15.06;58.53
10948;BME280;5526;42.070;24.752;2023-02-23T10:34:22;99010.28;;;15.21;58.19
10948;BME280;5526;42.070;24.752;2023-02-23T10:36:54;99007.94;;;15.43;57.38
10948;BME280;5526;42.070;24.752;2023-02-23T10:39:23;99007.47;;;15.78;56.07
10948;BME280;5526;42.070;24.752;2023-02-23T10:41:51;99006.09;;;15.99;56.08
10948;BME280;5526;42.070;24.752;2023-02-23T10:44:21;98997.72;;;16.10;54.80
10948;BME280;5526;42.070;24.752;2023-02-23T10:46:54;98993.50;;;15.91;54.84
10948;BME280;5526;42.070;24.752;2023-02-23T10:49:26;98991.97;;;16.03;54.65
10948;BME280;5526;42.070;24.752;2023-02-23T10:51:55;98995.13;;;15.87;54.86
10948;BME280;5526;42.070;24.752;2023-02-23T10:54:39;98992.63;;;15.95;53.88
10948;BME280;5526;42.070;24.752;2023-02-23T10:57:11;98988.03;;;15.82;54.81
10948;BME280;5526;42.070;24.752;2023-02-23T11:02:43;98989.97;;;16.14;54.17
10948;BME280;5526;42.070;24.752;2023-02-23T11:05:32;98980.34;;;16.18;52.69
10948;BME280;5526;42.070;24.752;2023-02-23T11:08:17;98987.22;;;16.19;53.28
10948;BME280;5526;42.070;24.752;2023-02-23T11:10:55;98986.28;;;16.28;52.79
10948;BME280;5526;42.070;24.752;2023-02-23T11:13:22;98980.56;;;16.03;53.05
10948;BME280;5526;42.070;24.752;2023-02-23T11:15:58;98969.03;;;15.75;53.58
10948;BME280;5526;42.070;24.752;2023-02-23T11:18:28;98974.03;;;15.77;53.76
10948;BME280;5526;42.070;24.752;2023-02-23T11:20:55;98973.34;;;15.71;53.62
10948;BME280;5526;42.070;24.752;2023-02-23T11:23:24;98971.63;;;15.62;54.01
10948;BME280;5526;42.070;24.752;2023-02-23T11:25:55;98973.84;;;15.73;53.66
10948;BME280;5526;42.070;24.752;2023-02-23T11:28:27;98972.69;;;15.79;53.18
10948;BME280;5526;42.070;24.752;2023-02-23T11:30:57;98971.53;;;15.85;53.20
10948;BME280;5526;42.070;24.752;2023-02-23T11:33:30;98976.91;;;15.99;53.13
10948;BME280;5526;42.070;24.752;2023-02-23T11:36:14;98974.69;;;16.38;51.86
10948;BME280;5526;42.070;24.752;2023-02-23T11:38:43;98964.34;;;16.04;52.36
10948;BME280;5526;42.070;24.752;2023-02-23T11:41:22;98963.00;;;15.88;53.63
10948;BME280;5526;42.070;24.752;2023-02-23T11:43:50;98963.06;;;16.02;53.37
10948;BME280;5526;42.070;24.752;2023-02-23T11:46:19;98959.72;;;15.78;53.94
10948;BME280;5526;42.070;24.752;2023-02-23T11:48:51;98960.28;;;15.75;54.82
10948;BME280;5526;42.070;24.752;2023-02-23T11:51:25;98953.06;;;15.62;54.30
10948;BME280;5526;42.070;24.752;2023-02-23T11:53:53;98958.38;;;16.12;53.26
10948;BME280;5526;42.070;24.752;2023-02-23T11:56:23;98955.56;;;16.41;52.46
10948;BME280;5526;42.070;24.752;2023-02-23T11:58:53;98956.84;;;16.43;52.64
10948;BME280;5526;42.070;24.752;2023-02-23T12:01:33;98948.59;;;16.26;53.82
10948;BME280;5526;42.070;24.752;2023-02-23T12:04:06;98952.91;;;16.22;54.19
10948;BME280;5526;42.070;24.752;2023-02-23T12:06:36;98958.34;;;16.31;54.60
10948;BME280;5526;42.070;24.752;2023-02-23T12:09:10;98957.44;;;16.54;53.63
10948;BME280;5526;42.070;24.752;2023-02-23T12:11:48;98958.19;;;16.09;54.93
10948;BME280;5526;42.070;24.752;2023-02-23T12:14:24;98953.44;;;16.38;54.52
10948;BME280;5526;42.070;24.752;2023-02-23T12:16:59;98956.03;;;16.43;54.59
10948;BME280;5526;42.070;24.752;2023-02-23T12:19:32;98960.38;;;16.20;55.03
10948;BME280;5526;42.070;24.752;2023-02-23T12:22:04;98939.66;;;16.22;55.33
10948;BME280;5526;42.070;24.752;2023-02-23T12:24:41;98954.19;;;15.56;58.07
10948;BME280;5526;42.070;24.752;2023-02-23T12:27:12;98961.84;;;15.57;58.24
10948;BME280;5526;42.070;24.752;2023-02-23T12:29:50;98960.13;;;16.35;56.59
10948;BME280;5526;42.070;24.752;2023-02-23T12:32:25;98967.81;;;15.86;58.26
10948;BME280;5526;42.070;24.752;2023-02-23T12:34:57;98973.47;;;15.80;58.10
10948;BME280;5526;42.070;24.752;2023-02-23T12:37:35;98966.72;;;15.69;59.37
10948;BME280;5526;42.070;24.752;2023-02-23T12:40:12;98979.13;;;15.73;58.76
10948;BME280;5526;42.070;24.752;2023-02-23T12:42:46;98970.19;;;15.69;58.31
10948;BME280;5526;42.070;24.752;2023-02-23T12:45:20;98967.81;;;15.86;57.80
10948;BME280;5526;42.070;24.752;2023-02-23T12:47:52;98984.38;;;15.78;59.61
10948;BME280;5526;42.070;24.752;2023-02-23T12:50:27;98980.72;;;15.56;61.28
10948;BME280;5526;42.070;24.752;2023-02-23T12:52:57;98992.84;;;15.80;60.05
10948;BME280;5526;42.070;24.752;2023-02-23T12:55:33;98996.50;;;15.84;60.18
10948;BME280;5526;42.070;24.752;2023-02-23T12:58:10;98981.50;;;15.38;62.09
10948;BME280;5526;42.070;24.752;2023-02-23T13:00:44;98988.91;;;15.59;61.25
10948;BME280;5526;42.070;24.752;2023-02-23T13:03:41;98979.50;;;15.67;61.15
10948;BME280;5526;42.070;24.752;2023-02-23T13:06:19;98991.81;;;15.34;62.69
10948;BME280;5526;42.070;24.752;2023-02-23T13:08:57;98988.06;;;15.17;62.98
10948;BME280;5526;42.070;24.752;2023-02-23T13:11:53;98999.16;;;14.95;64.61
10948;BME280;5526;42.070;24.752;2023-02-23T13:14:28;98991.50;;;15.17;63.64
10948;BME280;5526;42.070;24.752;2023-02-23T13:17:02;98992.06;;;15.14;63.73
10948;BME280;5526;42.070;24.752;2023-02-23T13:19:34;98994.94;;;14.94;64.86
10948;BME280;5526;42.070;24.752;2023-02-23T13:22:20;99002.13;;;15.17;64.97
10948;BME280;5526;42.070;24.752;2023-02-23T13:24:51;98994.78;;;15.09;65.39
10948;BME280;5526;42.070;24.752;2023-02-23T13:27:23;98995.38;;;15.25;65.14
10948;BME280;5526;42.070;24.752;2023-02-23T13:29:53;98988.50;;;15.24;64.91
10948;BME280;5526;42.070;24.752;2023-02-23T13:32:23;98998.84;;;15.02;65.77
10948;BME280;5526;42.070;24.752;2023-02-23T13:34:56;98999.66;;;14.74;67.06
10948;BME280;5526;42.070;24.752;2023-02-23T13:37:30;99000.78;;;14.39;68.17
10948;BME280;5526;42.070;24.752;2023-02-23T13:40:13;98999.94;;;14.05;70.12
10948;BME280;5526;42.070;24.752;2023-02-23T13:42:51;98999.44;;;13.98;70.74
10948;BME280;5526;42.070;24.752;2023-02-23T13:45:34;99012.44;;;13.95;70.93
10948;BME280;5526;42.070;24.752;2023-02-23T13:48:15;99002.25;;;13.73;72.90